sensor_id;sensor_type;location;lat;lon;timestamp;temperature;humidity
2851;DHT22;1433;49.976;8.342;2022-11-20T00:03:41;2.90;99.90
2851;DHT22;1433;49.976;8.342;2022-11-20T00:06:11;2.90;99.90
2851;DHT22;1433;49.976;8.342;2022-11-20T00:08:37;2.80;99.90
2851;DHT22;1433;49.976;8.342;2022-11-20T00:11:09;2.70;99.90
2851;DHT22;1433;49.976;8.342;2022-11-20T00:13:35;2.60;99.90
2851;DHT22;1433;49.976;8.342;2022-11-20T00:16:04;2.60;99.90
2851;DHT22;1433;49.976;8.342;2022-11-20T00:18:32;2.50;99.90
2851;DHT22;1433;49.976;8.342;2022-11-20T00:21:07;2.30;99.90
2851;DHT22;1433;49.976;8.342;2022-11-20T00:23:34;2.20;99.90
2851;DHT22;1433;49.976;8.342;2022-11-20T00:26:04;2.20;99.90
2851;DHT22;1433;49.976;8.342;2022-11-20T00:28:31;2.10;99.90
2851;DHT22;1433;49.976;8.342;2022-11-20T00:31:03;2.10;99.90
2851;DHT22;1433;49.976;8.342;2022-11-20T00:33:30;2.10;99.90
2851;DHT22;1433;49.976;8.342;2022-11-20T00:36:08;2.10;99.90
2851;DHT22;1433;49.976;8.342;2022-11-20T00:38:31;2.20;99.90
2851;DHT22;1433;49.976;8.342;2022-11-20T00:40:59;2.20;99.90
2851;DHT22;1433;49.976;8.342;2022-11-20T00:43:26;2.20;99.90
2851;DHT22;1433;49.976;8.342;2022-11-20T00:45:59;2.20;99.90
2851;DHT22;1433;49.976;8.342;2022-11-20T00:48:26;2.30;99.90
2851;DHT22;1433;49.976;8.342;2022-11-20T00:50:53;2.30;99.90
2851;DHT22;1433;49.976;8.342;2022-11-20T00:53:20;2.30;99.90
2851;DHT22;1433;49.976;8.342;2022-11-20T00:55:56;2.30;99.90
2851;DHT22;1433;49.976;8.342;2022-11-20T00:58:23;2.40;99.90
2851;DHT22;1433;49.976;8.342;2022-11-20T01:00:50;2.40;99.90
2851;DHT22;1433;49.976;8.342;2022-11-20T01:03:17;2.50;99.90
2851;DHT22;1433;49.976;8.342;2022-11-20T01:05:44;2.50;99.90
2851;DHT22;1433;49.976;8.342;2022-11-20T01:08:10;2.50;99.90
2851;DHT22;1433;49.976;8.342;2022-11-20T01:10:36;2.50;99.90
2851;DHT22;1433;49.976;8.342;2022-11-20T01:13:02;2.50;99.90
2851;DHT22;1433;49.976;8.342;2022-11-20T01:15:47;2.50;99.90
2851;DHT22;1433;49.976;8.342;2022-11-20T01:18:13;2.50;99.90
2851;DHT22;1433;49.976;8.342;2022-11-20T01:20:39;2.60;99.90
2851;DHT22;1433;49.976;8.342;2022-11-20T01:23:05;2.60;99.90
2851;DHT22;1433;49.976;8.342;2022-11-20T01:25:31;2.60;99.90
2851;DHT22;1433;49.976;8.342;2022-11-20T01:27:57;2.60;99.90
2851;DHT22;1433;49.976;8.342;2022-11-20T01:30:23;2.60;99.90
2851;DHT22;1433;49.976;8.342;2022-11-20T01:32:49;2.60;99.90
2851;DHT22;1433;49.976;8.342;2022-11-20T01:35:15;2.60;99.90
2851;DHT22;1433;49.976;8.342;2022-11-20T01:37:41;2.60;99.90
2851;DHT22;1433;49.976;8.342;2022-11-20T01:40:08;2.60;99.90
2851;DHT22;1433;49.976;8.342;2022-11-20T01:42:34;2.60;99.90
2851;DHT22;1433;49.976;8.342;2022-11-20T01:48:32;2.60;99.90
2851;DHT22;1433;49.976;8.342;2022-11-20T01:50:56;2.70;99.90
2851;DHT22;1433;49.976;8.342;2022-11-20T01:53:26;2.70;99.90
2851;DHT22;1433;49.976;8.342;2022-11-20T01:55:55;2.70;99.90
2851;DHT22;1433;49.976;8.342;2022-11-20T01:58:26;2.70;99.90
2851;DHT22;1433;49.976;8.342;2022-11-20T02:00:52;2.70;99.90
2851;DHT22;1433;49.976;8.342;2022-11-20T02:03:20;2.70;99.90
2851;DHT22;1433;49.976;8.342;2022-11-20T02:08:19;2.60;99.90
2851;DHT22;1433;49.976;8.342;2022-11-20T02:10:45;2.60;99.90
2851;DHT22;1433;49.976;8.342;2022-11-20T02:13:11;2.70;99.90
2851;DHT22;1433;49.976;8.342;2022-11-20T02:15:56;2.70;99.90
2851;DHT22;1433;49.976;8.342;2022-11-20T02:18:23;2.70;99.90
2851;DHT22;1433;49.976;8.342;2022-11-20T02:20:56;2.80;99.90
2851;DHT22;1433;49.976;8.342;2022-11-20T02:23:29;2.90;99.90
2851;DHT22;1433;49.976;8.342;2022-11-20T02:25:55;2.90;99.90
2851;DHT22;1433;49.976;8.342;2022-11-20T02:28:24;2.80;99.90
2851;DHT22;1433;49.976;8.342;2022-11-20T02:30:52;2.80;99.90
2851;DHT22;1433;49.976;8.342;2022-11-20T02:33:18;2.80;99.90
2851;DHT22;1433;49.976;8.342;2022-11-20T02:35:46;2.80;99.90
2851;DHT22;1433;49.976;8.342;2022-11-20T02:38:12;2.80;99.90
2851;DHT22;1433;49.976;8.342;2022-11-20T02:40:39;2.80;99.90
2851;DHT22;1433;49.976;8.342;2022-11-20T02:43:06;2.90;99.90
2851;DHT22;1433;49.976;8.342;2022-11-20T02:45:32;2.90;99.90
2851;DHT22;1433;49.976;8.342;2022-11-20T02:47:58;2.90;99.90
2851;DHT22;1433;49.976;8.342;2022-11-20T02:50:25;2.90;99.90
2851;DHT22;1433;49.976;8.342;2022-11-20T02:52:51;2.90;99.90
2851;DHT22;1433;49.976;8.342;2022-11-20T02:55:17;2.90;99.90
2851;DHT22;1433;49.976;8.342;2022-11-20T02:57:43;2.90;99.90
2851;DHT22;1433;49.976;8.342;2022-11-20T03:00:10;2.90;99.90
2851;DHT22;1433;49.976;8.342;2022-11-20T03:02:36;2.90;99.90
2851;DHT22;1433;49.976;8.342;2022-11-20T03:05:03;3.00;99.90
2851;DHT22;1433;49.976;8.342;2022-11-20T03:07:29;2.90;99.90
2851;DHT22;1433;49.976;8.342;2022-11-20T03:09:55;3.00;99.90
2851;DHT22;1433;49.976;8.342;2022-11-20T03:12:21;3.00;99.90
2851;DHT22;1433;49.976;8.342;2022-11-20T03:14:47;3.00;99.90
2851;DHT22;1433;49.976;8.342;2022-11-20T03:17:13;3.00;99.90
2851;DHT22;1433;49.976;8.342;2022-11-20T03:19:39;3.00;99.90
2851;DHT22;1433;49.976;8.342;2022-11-20T03:22:05;3.00;99.90
2851;DHT22;1433;49.976;8.342;2022-11-20T03:24:31;3.00;99.90
2851;DHT22;1433;49.976;8.342;2022-11-20T03:26:57;3.00;99.90
2851;DHT22;1433;49.976;8.342;2022-11-20T03:29:24;3.00;99.90
2851;DHT22;1433;49.976;8.342;2022-11-20T03:31:50;3.00;99.90
2851;DHT22;1433;49.976;8.342;2022-11-20T03:34:16;3.10;99.90
2851;DHT22;1433;49.976;8.342;2022-11-20T03:36:42;3.10;99.90
2851;DHT22;1433;49.976;8.342;2022-11-20T03:39:09;3.10;99.90
2851;DHT22;1433;49.976;8.342;2022-11-20T03:41:37;3.10;99.90
2851;DHT22;1433;49.976;8.342;2022-11-20T03:44:05;3.10;99.90
2851;DHT22;1433;49.976;8.342;2022-11-20T03:46:32;3.10;99.90
2851;DHT22;1433;49.976;8.342;2022-11-20T03:48:59;3.10;99.90
2851;DHT22;1433;49.976;8.342;2022-11-20T03:51:30;3.10;99.90
2851;DHT22;1433;49.976;8.342;2022-11-20T03:53:59;3.20;99.90
2851;DHT22;1433;49.976;8.342;2022-11-20T03:56:32;3.10;99.90
2851;DHT22;1433;49.976;8.342;2022-11-20T03:58:55;3.10;99.90
2851;DHT22;1433;49.976;8.342;2022-11-20T04:01:24;3.10;99.90
2851;DHT22;1433;49.976;8.342;2022-11-20T04:03:52;3.20;99.90
2851;DHT22;1433;49.976;8.342;2022-11-20T04:06:21;3.20;99.90
2851;DHT22;1433;49.976;8.342;2022-11-20T04:08:48;3.20;99.90
2851;DHT22;1433;49.976;8.342;2022-11-20T04:11:20;3.20;99.90
2851;DHT22;1433;49.976;8.342;2022-11-20T04:13:50;3.20;99.90
2851;DHT22;1433;49.976;8.342;2022-11-20T04:16:17;3.20;99.90
2851;DHT22;1433;49.976;8.342;2022-11-20T04:18:43;3.20;99.90
2851;DHT22;1433;49.976;8.342;2022-11-20T04:21:10;3.20;99.90
2851;DHT22;1433;49.976;8.342;2022-11-20T04:23:38;3.20;99.90
2851;DHT22;1433;49.976;8.342;2022-11-20T04:26:09;3.20;99.90
2851;DHT22;1433;49.976;8.342;2022-11-20T04:28:35;3.20;99.90
2851;DHT22;1433;49.976;8.342;2022-11-20T04:31:13;3.20;99.90
2851;DHT22;1433;49.976;8.342;2022-11-20T04:33:40;3.20;99.90
2851;DHT22;1433;49.976;8.342;2022-11-20T04:36:18;3.20;99.90
2851;DHT22;1433;49.976;8.342;2022-11-20T04:38:41;3.20;99.90
2851;DHT22;1433;49.976;8.342;2022-11-20T04:41:16;3.20;99.90
2851;DHT22;1433;49.976;8.342;2022-11-20T04:43:52;3.20;99.90
2851;DHT22;1433;49.976;8.342;2022-11-20T04:46:19;3.20;99.90
2851;DHT22;1433;49.976;8.342;2022-11-20T04:48:47;3.20;99.90
2851;DHT22;1433;49.976;8.342;2022-11-20T04:51:13;3.10;99.90
2851;DHT22;1433;49.976;8.342;2022-11-20T04:53:39;3.20;99.90
2851;DHT22;1433;49.976;8.342;2022-11-20T04:56:07;3.20;99.90
2851;DHT22;1433;49.976;8.342;2022-11-20T04:58:34;3.30;99.90
2851;DHT22;1433;49.976;8.342;2022-11-20T05:01:05;3.30;99.90
2851;DHT22;1433;49.976;8.342;2022-11-20T05:03:40;3.40;99.90
2851;DHT22;1433;49.976;8.342;2022-11-20T05:06:08;3.30;99.90
2851;DHT22;1433;49.976;8.342;2022-11-20T05:08:35;3.30;99.90
2851;DHT22;1433;49.976;8.342;2022-11-20T05:11:04;3.40;99.90
2851;DHT22;1433;49.976;8.342;2022-11-20T05:13:42;3.40;99.90
2851;DHT22;1433;49.976;8.342;2022-11-20T05:16:13;3.40;99.90
2851;DHT22;1433;49.976;8.342;2022-11-20T05:18:42;3.40;99.90
2851;DHT22;1433;49.976;8.342;2022-11-20T05:21:09;3.40;99.90
2851;DHT22;1433;49.976;8.342;2022-11-20T05:23:36;3.40;99.90
2851;DHT22;1433;49.976;8.342;2022-11-20T05:26:04;3.40;99.90
2851;DHT22;1433;49.976;8.342;2022-11-20T05:28:31;3.40;99.90
2851;DHT22;1433;49.976;8.342;2022-11-20T05:31:06;3.30;99.90
2851;DHT22;1433;49.976;8.342;2022-11-20T05:33:34;3.40;99.90
2851;DHT22;1433;49.976;8.342;2022-11-20T05:36:02;3.40;99.90
2851;DHT22;1433;49.976;8.342;2022-11-20T05:38:29;3.40;99.90
2851;DHT22;1433;49.976;8.342;2022-11-20T05:41:04;3.50;99.90
2851;DHT22;1433;49.976;8.342;2022-11-20T05:43:32;3.40;99.90
2851;DHT22;1433;49.976;8.342;2022-11-20T05:46:00;3.40;99.90
2851;DHT22;1433;49.976;8.342;2022-11-20T05:48:27;3.40;99.90
2851;DHT22;1433;49.976;8.342;2022-11-20T05:50:53;3.40;99.90
2851;DHT22;1433;49.976;8.342;2022-11-20T05:53:19;3.40;99.90
2851;DHT22;1433;49.976;8.342;2022-11-20T05:55:46;3.50;99.90
2851;DHT22;1433;49.976;8.342;2022-11-20T05:58:12;3.50;99.90
2851;DHT22;1433;49.976;8.342;2022-11-20T06:00:38;3.40;99.90
2851;DHT22;1433;49.976;8.342;2022-11-20T06:03:04;3.40;99.90
2851;DHT22;1433;49.976;8.342;2022-11-20T06:05:30;3.40;99.90
2851;DHT22;1433;49.976;8.342;2022-11-20T06:07:57;3.50;99.90
2851;DHT22;1433;49.976;8.342;2022-11-20T06:10:23;3.50;99.90
2851;DHT22;1433;49.976;8.342;2022-11-20T06:12:49;3.50;99.90
2851;DHT22;1433;49.976;8.342;2022-11-20T06:15:15;3.40;99.90
2851;DHT22;1433;49.976;8.342;2022-11-20T06:17:41;3.40;99.90
2851;DHT22;1433;49.976;8.342;2022-11-20T06:20:08;3.50;99.90
2851;DHT22;1433;49.976;8.342;2022-11-20T06:22:35;3.50;99.90
2851;DHT22;1433;49.976;8.342;2022-11-20T06:25:02;3.50;99.90
2851;DHT22;1433;49.976;8.342;2022-11-20T06:27:28;3.50;99.90
2851;DHT22;1433;49.976;8.342;2022-11-20T06:29:54;3.50;99.90
2851;DHT22;1433;49.976;8.342;2022-11-20T06:32:20;3.50;99.90
2851;DHT22;1433;49.976;8.342;2022-11-20T06:34:47;3.50;99.90
2851;DHT22;1433;49.976;8.342;2022-11-20T06:37:13;3.50;99.90
2851;DHT22;1433;49.976;8.342;2022-11-20T06:39:39;3.50;99.90
2851;DHT22;1433;49.976;8.342;2022-11-20T06:42:05;3.50;99.90
2851;DHT22;1433;49.976;8.342;2022-11-20T06:44:31;3.50;99.90
2851;DHT22;1433;49.976;8.342;2022-11-20T06:46:58;3.50;99.90
2851;DHT22;1433;49.976;8.342;2022-11-20T06:49:25;3.50;99.90
2851;DHT22;1433;49.976;8.342;2022-11-20T06:51:53;3.50;99.90
2851;DHT22;1433;49.976;8.342;2022-11-20T06:54:20;3.50;99.90
2851;DHT22;1433;49.976;8.342;2022-11-20T06:56:47;3.50;99.90
2851;DHT22;1433;49.976;8.342;2022-11-20T06:59:13;3.50;99.90
2851;DHT22;1433;49.976;8.342;2022-11-20T07:01:40;3.50;99.90
2851;DHT22;1433;49.976;8.342;2022-11-20T07:04:06;3.50;99.90
2851;DHT22;1433;49.976;8.342;2022-11-20T07:06:32;3.50;99.90
2851;DHT22;1433;49.976;8.342;2022-11-20T07:08:59;3.50;99.90
2851;DHT22;1433;49.976;8.342;2022-11-20T07:11:25;3.50;99.90
2851;DHT22;1433;49.976;8.342;2022-11-20T07:13:51;3.60;99.90
2851;DHT22;1433;49.976;8.342;2022-11-20T07:16:17;3.60;99.90
2851;DHT22;1433;49.976;8.342;2022-11-20T07:18:44;3.60;99.90
2851;DHT22;1433;49.976;8.342;2022-11-20T07:21:10;3.60;99.90
2851;DHT22;1433;49.976;8.342;2022-11-20T07:23:37;3.60;99.90
2851;DHT22;1433;49.976;8.342;2022-11-20T07:26:09;3.60;99.90
2851;DHT22;1433;49.976;8.342;2022-11-20T07:28:37;3.60;99.90
2851;DHT22;1433;49.976;8.342;2022-11-20T07:31:04;3.60;99.90
2851;DHT22;1433;49.976;8.342;2022-11-20T07:33:32;3.60;99.90
2851;DHT22;1433;49.976;8.342;2022-11-20T07:35:59;3.60;99.90
2851;DHT22;1433;49.976;8.342;2022-11-20T07:38:25;3.60;99.90
2851;DHT22;1433;49.976;8.342;2022-11-20T07:40:55;3.60;99.90
2851;DHT22;1433;49.976;8.342;2022-11-20T07:43:23;3.70;99.90
2851;DHT22;1433;49.976;8.342;2022-11-20T07:45:50;3.70;99.90
2851;DHT22;1433;49.976;8.342;2022-11-20T07:48:17;3.80;99.90
2851;DHT22;1433;49.976;8.342;2022-11-20T07:50:43;3.80;99.90
2851;DHT22;1433;49.976;8.342;2022-11-20T07:53:09;3.90;99.90
2851;DHT22;1433;49.976;8.342;2022-11-20T07:55:35;3.90;99.90
2851;DHT22;1433;49.976;8.342;2022-11-20T07:58:03;3.90;99.90
2851;DHT22;1433;49.976;8.342;2022-11-20T08:00:29;3.90;99.90
2851;DHT22;1433;49.976;8.342;2022-11-20T08:02:55;4.00;99.90
2851;DHT22;1433;49.976;8.342;2022-11-20T08:05:22;4.00;99.90
2851;DHT22;1433;49.976;8.342;2022-11-20T08:07:48;4.00;99.90
2851;DHT22;1433;49.976;8.342;2022-11-20T08:10:15;4.10;99.90
2851;DHT22;1433;49.976;8.342;2022-11-20T08:12:47;4.20;99.90
2851;DHT22;1433;49.976;8.342;2022-11-20T08:15:33;4.20;99.90
2851;DHT22;1433;49.976;8.342;2022-11-20T08:18:10;4.30;99.90
2851;DHT22;1433;49.976;8.342;2022-11-20T08:20:34;4.30;99.90
2851;DHT22;1433;49.976;8.342;2022-11-20T08:23:02;4.30;99.90
2851;DHT22;1433;49.976;8.342;2022-11-20T08:25:35;4.30;99.90
2851;DHT22;1433;49.976;8.342;2022-11-20T08:28:04;4.40;99.90
2851;DHT22;1433;49.976;8.342;2022-11-20T08:30:32;4.50;99.90
2851;DHT22;1433;49.976;8.342;2022-11-20T08:33:04;4.60;99.90
2851;DHT22;1433;49.976;8.342;2022-11-20T08:35:33;4.60;99.90
2851;DHT22;1433;49.976;8.342;2022-11-20T08:38:01;4.60;99.90
2851;DHT22;1433;49.976;8.342;2022-11-20T08:40:30;4.70;99.90
2851;DHT22;1433;49.976;8.342;2022-11-20T08:42:59;4.80;99.90
2851;DHT22;1433;49.976;8.342;2022-11-20T08:45:26;4.90;99.90
2851;DHT22;1433;49.976;8.342;2022-11-20T08:47:52;4.80;99.90
2851;DHT22;1433;49.976;8.342;2022-11-20T08:50:19;4.90;99.90
2851;DHT22;1433;49.976;8.342;2022-11-20T08:52:45;4.80;99.90
2851;DHT22;1433;49.976;8.342;2022-11-20T08:55:11;4.90;99.90
2851;DHT22;1433;49.976;8.342;2022-11-20T08:57:38;4.80;99.90
2851;DHT22;1433;49.976;8.342;2022-11-20T09:00:07;4.60;99.90
2851;DHT22;1433;49.976;8.342;2022-11-20T09:02:35;4.50;99.90
2851;DHT22;1433;49.976;8.342;2022-11-20T09:05:02;4.50;99.90
2851;DHT22;1433;49.976;8.342;2022-11-20T09:07:29;4.60;99.90
2851;DHT22;1433;49.976;8.342;2022-11-20T09:09:56;4.60;99.90
2851;DHT22;1433;49.976;8.342;2022-11-20T09:12:22;4.60;99.90
2851;DHT22;1433;49.976;8.342;2022-11-20T09:14:48;4.70;99.90
2851;DHT22;1433;49.976;8.342;2022-11-20T09:17:15;4.80;99.90
2851;DHT22;1433;49.976;8.342;2022-11-20T09:19:42;4.80;99.90
2851;DHT22;1433;49.976;8.342;2022-11-20T09:22:09;4.90;99.90
2851;DHT22;1433;49.976;8.342;2022-11-20T09:24:36;4.90;99.90
2851;DHT22;1433;49.976;8.342;2022-11-20T09:27:04;5.00;99.90
2851;DHT22;1433;49.976;8.342;2022-11-20T09:29:32;4.80;99.90
2851;DHT22;1433;49.976;8.342;2022-11-20T09:31:59;4.70;99.90
2851;DHT22;1433;49.976;8.342;2022-11-20T09:34:25;4.60;99.90
2851;DHT22;1433;49.976;8.342;2022-11-20T09:36:51;4.70;99.90
2851;DHT22;1433;49.976;8.342;2022-11-20T09:39:17;4.80;99.90
2851;DHT22;1433;49.976;8.342;2022-11-20T09:41:51;4.90;99.90
2851;DHT22;1433;49.976;8.342;2022-11-20T09:56:14;5.60;99.90
2851;DHT22;1433;49.976;8.342;2022-11-20T09:58:47;5.60;99.90
2851;DHT22;1433;49.976;8.342;2022-11-20T10:01:21;5.70;99.90
2851;DHT22;1433;49.976;8.342;2022-11-20T10:03:57;5.50;99.90
2851;DHT22;1433;49.976;8.342;2022-11-20T10:06:33;5.30;99.90
2851;DHT22;1433;49.976;8.342;2022-11-20T10:09:26;5.30;99.90
2851;DHT22;1433;49.976;8.342;2022-11-20T10:17:46;5.00;99.90
2851;DHT22;1433;49.976;8.342;2022-11-20T10:20:43;4.80;99.90
2851;DHT22;1433;49.976;8.342;2022-11-20T10:29:15;5.40;99.90
2851;DHT22;1433;49.976;8.342;2022-11-20T10:31:53;5.40;99.90
2851;DHT22;1433;49.976;8.342;2022-11-20T10:34:23;5.40;99.90
2851;DHT22;1433;49.976;8.342;2022-11-20T10:36:55;5.40;99.90
2851;DHT22;1433;49.976;8.342;2022-11-20T10:39:27;5.50;99.90
2851;DHT22;1433;49.976;8.342;2022-11-20T10:42:08;5.60;99.90
2851;DHT22;1433;49.976;8.342;2022-11-20T10:44:51;5.60;99.90
2851;DHT22;1433;49.976;8.342;2022-11-20T10:47:30;5.60;99.90
2851;DHT22;1433;49.976;8.342;2022-11-20T10:50:01;5.60;99.90
2851;DHT22;1433;49.976;8.342;2022-11-20T10:58:14;5.80;99.90
2851;DHT22;1433;49.976;8.342;2022-11-20T11:00:46;5.90;99.90
2851;DHT22;1433;49.976;8.342;2022-11-20T11:03:30;5.90;99.90
2851;DHT22;1433;49.976;8.342;2022-11-20T11:06:07;5.90;99.90
2851;DHT22;1433;49.976;8.342;2022-11-20T11:08:39;6.00;99.90
2851;DHT22;1433;49.976;8.342;2022-11-20T11:11:21;6.20;99.90
2851;DHT22;1433;49.976;8.342;2022-11-20T11:13:52;6.30;99.90
2851;DHT22;1433;49.976;8.342;2022-11-20T11:16:25;6.40;99.90
2851;DHT22;1433;49.976;8.342;2022-11-20T11:19:04;6.50;99.90
2851;DHT22;1433;49.976;8.342;2022-11-20T11:21:35;6.50;99.90
2851;DHT22;1433;49.976;8.342;2022-11-20T11:24:03;6.40;99.90
2851;DHT22;1433;49.976;8.342;2022-11-20T11:26:30;6.50;99.90
2851;DHT22;1433;49.976;8.342;2022-11-20T11:28:59;6.60;99.90
2851;DHT22;1433;49.976;8.342;2022-11-20T11:31:29;6.70;99.90
2851;DHT22;1433;49.976;8.342;2022-11-20T11:34:07;6.70;99.90
2851;DHT22;1433;49.976;8.342;2022-11-20T11:36:35;6.70;99.90
2851;DHT22;1433;49.976;8.342;2022-11-20T11:39:03;6.70;99.90
2851;DHT22;1433;49.976;8.342;2022-11-20T11:41:33;6.70;99.90
2851;DHT22;1433;49.976;8.342;2022-11-20T11:55:36;7.30;99.90
2851;DHT22;1433;49.976;8.342;2022-11-20T11:58:19;7.30;99.90
2851;DHT22;1433;49.976;8.342;2022-11-20T12:03:49;7.60;99.90
2851;DHT22;1433;49.976;8.342;2022-11-20T12:06:18;7.70;99.90
2851;DHT22;1433;49.976;8.342;2022-11-20T12:08:56;7.80;99.90
2851;DHT22;1433;49.976;8.342;2022-11-20T12:11:49;7.80;99.90
2851;DHT22;1433;49.976;8.342;2022-11-20T12:14:40;8.10;99.90
2851;DHT22;1433;49.976;8.342;2022-11-20T12:17:10;8.20;99.90
2851;DHT22;1433;49.976;8.342;2022-11-20T12:19:37;8.20;99.90
2851;DHT22;1433;49.976;8.342;2022-11-20T12:25:29;8.30;99.90
2851;DHT22;1433;49.976;8.342;2022-11-20T12:28:11;8.10;99.90
2851;DHT22;1433;49.976;8.342;2022-11-20T12:31:15;7.90;99.90
2851;DHT22;1433;49.976;8.342;2022-11-20T12:39:40;7.20;99.90
2851;DHT22;1433;49.976;8.342;2022-11-20T12:53:41;7.10;99.90
2851;DHT22;1433;49.976;8.342;2022-11-20T13:08:31;7.50;99.90
2851;DHT22;1433;49.976;8.342;2022-11-20T13:14:18;7.50;99.90
2851;DHT22;1433;49.976;8.342;2022-11-20T13:16:58;7.40;99.90
2851;DHT22;1433;49.976;8.342;2022-11-20T13:19:29;7.30;99.90
2851;DHT22;1433;49.976;8.342;2022-11-20T13:21:55;7.20;99.90
2851;DHT22;1433;49.976;8.342;2022-11-20T13:30:11;6.90;99.90
2851;DHT22;1433;49.976;8.342;2022-11-20T13:32:28;6.60;99.90
2851;DHT22;1433;49.976;8.342;2022-11-20T13:35:03;6.50;99.90
2851;DHT22;1433;49.976;8.342;2022-11-20T13:37:33;6.50;99.90
2851;DHT22;1433;49.976;8.342;2022-11-20T13:40:12;6.40;99.90
2851;DHT22;1433;49.976;8.342;2022-11-20T13:45:32;6.40;99.90
2851;DHT22;1433;49.976;8.342;2022-11-20T13:48:05;6.40;99.90
2851;DHT22;1433;49.976;8.342;2022-11-20T13:51:00;6.40;99.90
2851;DHT22;1433;49.976;8.342;2022-11-20T13:59:57;6.60;99.90
2851;DHT22;1433;49.976;8.342;2022-11-20T14:02:40;6.50;99.90
2851;DHT22;1433;49.976;8.342;2022-11-20T14:05:19;6.50;99.90
2851;DHT22;1433;49.976;8.342;2022-11-20T14:07:45;6.50;99.90
2851;DHT22;1433;49.976;8.342;2022-11-20T14:10:24;6.50;99.90
2851;DHT22;1433;49.976;8.342;2022-11-20T14:12:52;6.50;99.90
2851;DHT22;1433;49.976;8.342;2022-11-20T14:15:30;6.50;99.90
2851;DHT22;1433;49.976;8.342;2022-11-20T14:17:58;6.40;99.90
2851;DHT22;1433;49.976;8.342;2022-11-20T14:20:27;6.50;99.90
2851;DHT22;1433;49.976;8.342;2022-11-20T14:22:55;6.50;99.90
2851;DHT22;1433;49.976;8.342;2022-11-20T14:25:24;6.50;99.90
2851;DHT22;1433;49.976;8.342;2022-11-20T14:27:55;6.50;99.90
2851;DHT22;1433;49.976;8.342;2022-11-20T14:30:29;6.40;99.90
2851;DHT22;1433;49.976;8.342;2022-11-20T14:33:02;6.40;99.90
2851;DHT22;1433;49.976;8.342;2022-11-20T14:35:34;6.40;99.90
2851;DHT22;1433;49.976;8.342;2022-11-20T14:38:03;6.40;99.90
2851;DHT22;1433;49.976;8.342;2022-11-20T14:40:32;6.40;99.90
2851;DHT22;1433;49.976;8.342;2022-11-20T14:43:04;6.40;99.90
2851;DHT22;1433;49.976;8.342;2022-11-20T14:45:46;6.40;99.90
2851;DHT22;1433;49.976;8.342;2022-11-20T14:48:33;6.40;99.90
2851;DHT22;1433;49.976;8.342;2022-11-20T14:51:23;6.40;99.90
2851;DHT22;1433;49.976;8.342;2022-11-20T14:53:54;6.40;99.90
2851;DHT22;1433;49.976;8.342;2022-11-20T14:56:24;6.50;99.90
2851;DHT22;1433;49.976;8.342;2022-11-20T14:58:57;6.50;99.90
2851;DHT22;1433;49.976;8.342;2022-11-20T15:01:28;6.40;99.90
2851;DHT22;1433;49.976;8.342;2022-11-20T15:04:07;6.40;99.90
2851;DHT22;1433;49.976;8.342;2022-11-20T15:06:37;6.40;99.90
2851;DHT22;1433;49.976;8.342;2022-11-20T15:09:04;6.40;99.90
2851;DHT22;1433;49.976;8.342;2022-11-20T15:11:35;6.40;99.90
2851;DHT22;1433;49.976;8.342;2022-11-20T15:14:04;6.30;99.90
2851;DHT22;1433;49.976;8.342;2022-11-20T15:16:32;6.30;99.90
2851;DHT22;1433;49.976;8.342;2022-11-20T15:18:58;6.30;99.90
2851;DHT22;1433;49.976;8.342;2022-11-20T15:21:25;6.30;99.90
2851;DHT22;1433;49.976;8.342;2022-11-20T15:23:52;6.30;99.90
2851;DHT22;1433;49.976;8.342;2022-11-20T15:26:25;6.30;99.90
2851;DHT22;1433;49.976;8.342;2022-11-20T15:28:53;6.30;99.90
2851;DHT22;1433;49.976;8.342;2022-11-20T15:31:22;6.30;99.90
2851;DHT22;1433;49.976;8.342;2022-11-20T15:33:49;6.30;99.90
2851;DHT22;1433;49.976;8.342;2022-11-20T15:36:16;6.30;99.90
2851;DHT22;1433;49.976;8.342;2022-11-20T15:38:42;6.30;99.90
2851;DHT22;1433;49.976;8.342;2022-11-20T15:41:09;6.30;99.90
2851;DHT22;1433;49.976;8.342;2022-11-20T15:43:36;6.20;99.90
2851;DHT22;1433;49.976;8.342;2022-11-20T15:46:14;6.10;99.90
2851;DHT22;1433;49.976;8.342;2022-11-20T15:48:44;6.10;99.90
2851;DHT22;1433;49.976;8.342;2022-11-20T15:51:29;6.10;99.90
2851;DHT22;1433;49.976;8.342;2022-11-20T15:53:57;6.10;99.90
2851;DHT22;1433;49.976;8.342;2022-11-20T15:56:24;6.00;99.90
2851;DHT22;1433;49.976;8.342;2022-11-20T15:58:51;6.00;99.90
2851;DHT22;1433;49.976;8.342;2022-11-20T16:01:20;5.90;99.90
2851;DHT22;1433;49.976;8.342;2022-11-20T16:03:48;5.80;99.90
2851;DHT22;1433;49.976;8.342;2022-11-20T16:06:14;5.80;99.90
2851;DHT22;1433;49.976;8.342;2022-11-20T16:08:42;5.90;99.90
2851;DHT22;1433;49.976;8.342;2022-11-20T16:11:10;5.90;99.90
2851;DHT22;1433;49.976;8.342;2022-11-20T16:13:38;5.90;99.90
2851;DHT22;1433;49.976;8.342;2022-11-20T16:16:29;6.00;99.90
2851;DHT22;1433;49.976;8.342;2022-11-20T16:19:01;5.90;99.90
2851;DHT22;1433;49.976;8.342;2022-11-20T16:21:28;6.00;99.90
2851;DHT22;1433;49.976;8.342;2022-11-20T16:24:04;6.00;99.90
2851;DHT22;1433;49.976;8.342;2022-11-20T16:26:32;6.00;99.90
2851;DHT22;1433;49.976;8.342;2022-11-20T16:28:59;6.00;99.90
2851;DHT22;1433;49.976;8.342;2022-11-20T16:31:26;6.00;99.90
2851;DHT22;1433;49.976;8.342;2022-11-20T16:33:53;6.10;99.90
2851;DHT22;1433;49.976;8.342;2022-11-20T16:36:22;6.10;99.90
2851;DHT22;1433;49.976;8.342;2022-11-20T16:38:52;6.10;99.90
2851;DHT22;1433;49.976;8.342;2022-11-20T16:41:19;6.00;99.90
2851;DHT22;1433;49.976;8.342;2022-11-20T16:43:48;5.90;99.90
2851;DHT22;1433;49.976;8.342;2022-11-20T16:46:19;5.90;99.90
2851;DHT22;1433;49.976;8.342;2022-11-20T16:48:52;5.90;99.90
2851;DHT22;1433;49.976;8.342;2022-11-20T16:51:24;5.90;99.90
2851;DHT22;1433;49.976;8.342;2022-11-20T16:53:51;5.90;99.90
2851;DHT22;1433;49.976;8.342;2022-11-20T16:56:22;5.90;99.90
2851;DHT22;1433;49.976;8.342;2022-11-20T16:58:50;5.90;99.90
2851;DHT22;1433;49.976;8.342;2022-11-20T17:01:18;5.90;99.90
2851;DHT22;1433;49.976;8.342;2022-11-20T17:04:00;5.90;99.90
2851;DHT22;1433;49.976;8.342;2022-11-20T17:06:30;5.90;99.90
2851;DHT22;1433;49.976;8.342;2022-11-20T17:08:57;6.00;99.90
2851;DHT22;1433;49.976;8.342;2022-11-20T17:11:25;6.00;99.90
2851;DHT22;1433;49.976;8.342;2022-11-20T17:13:51;5.90;99.90
2851;DHT22;1433;49.976;8.342;2022-11-20T17:16:21;5.90;99.90
2851;DHT22;1433;49.976;8.342;2022-11-20T17:18:48;5.90;99.90
2851;DHT22;1433;49.976;8.342;2022-11-20T17:21:16;5.90;99.90
2851;DHT22;1433;49.976;8.342;2022-11-20T17:23:44;5.90;99.90
2851;DHT22;1433;49.976;8.342;2022-11-20T17:26:13;5.90;99.90
2851;DHT22;1433;49.976;8.342;2022-11-20T17:28:45;5.90;99.90
2851;DHT22;1433;49.976;8.342;2022-11-20T17:31:14;5.90;99.90
2851;DHT22;1433;49.976;8.342;2022-11-20T17:33:43;5.90;99.90
2851;DHT22;1433;49.976;8.342;2022-11-20T17:36:12;5.90;99.90
2851;DHT22;1433;49.976;8.342;2022-11-20T17:38:40;5.90;99.90
2851;DHT22;1433;49.976;8.342;2022-11-20T17:41:10;5.90;99.90
2851;DHT22;1433;49.976;8.342;2022-11-20T17:43:38;5.90;99.90
2851;DHT22;1433;49.976;8.342;2022-11-20T17:46:16;5.90;99.90
2851;DHT22;1433;49.976;8.342;2022-11-20T17:48:44;5.90;99.90
2851;DHT22;1433;49.976;8.342;2022-11-20T17:51:15;5.90;99.90
2851;DHT22;1433;49.976;8.342;2022-11-20T17:53:47;5.90;99.90
2851;DHT22;1433;49.976;8.342;2022-11-20T17:56:16;5.90;99.90
2851;DHT22;1433;49.976;8.342;2022-11-20T17:59:09;5.90;99.90
2851;DHT22;1433;49.976;8.342;2022-11-20T18:01:37;5.90;99.90
2851;DHT22;1433;49.976;8.342;2022-11-20T18:04:04;6.00;99.90
2851;DHT22;1433;49.976;8.342;2022-11-20T18:06:31;6.00;99.90
2851;DHT22;1433;49.976;8.342;2022-11-20T18:08:58;6.00;99.90
2851;DHT22;1433;49.976;8.342;2022-11-20T18:11:27;6.00;99.90
2851;DHT22;1433;49.976;8.342;2022-11-20T18:13:58;6.00;99.90
2851;DHT22;1433;49.976;8.342;2022-11-20T18:16:54;6.00;99.90